createdAt,value
2023-01-30T00:01:28.077Z,101885.50
2023-01-30T00:03:00.147Z,101884.66
2023-01-30T00:04:32.211Z,101889.00
2023-01-30T00:06:04.562Z,101878.78
2023-01-30T00:07:36.601Z,101871.91
2023-01-30T00:09:12.897Z,101876.31
2023-01-30T00:10:45.545Z,101868.66
2023-01-30T00:12:17.513Z,101867.78
2023-01-30T00:13:50.782Z,101858.34
2023-01-30T00:15:22.755Z,101858.47
2023-01-30T00:16:55.562Z,101858.53
2023-01-30T00:18:27.507Z,101846.47
2023-01-30T00:19:59.554Z,101849.09
2023-01-30T00:21:31.503Z,101837.94
2023-01-30T00:23:03.715Z,101843.16
2023-01-30T00:24:37.712Z,101843.22
2023-01-30T00:26:10.312Z,101838.97
2023-01-30T00:27:43.460Z,101844.09
2023-01-30T00:29:15.426Z,101833.78
2023-01-30T00:30:54.612Z,101826.88
2023-01-30T00:32:28.322Z,101829.56
2023-01-30T00:34:02.672Z,101816.66
2023-01-30T00:35:34.962Z,101812.31
2023-01-30T00:37:08.639Z,101814.97
2023-01-30T00:38:40.771Z,101808.91
2023-01-30T00:40:13.008Z,101808.03
2023-01-30T00:42:03.644Z,101799.44
2023-01-30T00:43:54.536Z,101817.56
2023-01-30T00:45:45.678Z,101813.31
2023-01-30T00:47:17.756Z,101810.78
2023-01-30T00:48:50.053Z,101797.00
2023-01-30T00:50:42.760Z,101791.88
2023-01-30T00:52:17.367Z,101796.13
2023-01-30T00:53:49.385Z,101805.69
2023-01-30T00:55:21.398Z,101785.88
2023-01-30T00:56:53.415Z,101795.41
2023-01-30T00:58:25.853Z,101802.38
2023-01-30T00:59:57.909Z,101792.91
2023-01-30T01:01:29.948Z,101795.59
2023-01-30T01:03:02.308Z,101793.06
2023-01-30T01:04:43.636Z,101791.38
2023-01-30T01:06:16.517Z,101783.59
2023-01-30T01:07:49.064Z,101785.34
2023-01-30T01:09:21.066Z,101786.22
2023-01-30T01:10:53.124Z,101781.88
2023-01-30T01:12:25.263Z,101781.16
2023-01-30T01:13:59.730Z,101781.16
2023-01-30T01:15:31.889Z,101784.63
2023-01-30T01:17:05.162Z,101763.94
2023-01-30T01:18:37.361Z,101776.06
2023-01-30T01:20:13.495Z,101770.94
2023-01-30T01:21:45.677Z,101783.88
2023-01-30T01:23:17.837Z,101787.34
2023-01-30T01:24:50.078Z,101780.53
2023-01-30T01:26:22.381Z,101776.16
2023-01-30T01:27:55.323Z,101788.22
2023-01-30T01:29:27.242Z,101785.75
2023-01-30T01:30:59.532Z,101779.69
2023-01-30T01:32:32.816Z,101790.88
2023-01-30T01:34:04.938Z,101770.25
2023-01-30T01:35:41.385Z,101776.28
2023-01-30T01:37:13.478Z,101785.75
2023-01-30T01:38:47.750Z,101782.31
2023-01-30T01:40:38.964Z,101788.50
2023-01-30T01:42:12.335Z,101773.78
2023-01-30T01:44:14.590Z,101780.78
2023-01-30T01:45:48.279Z,101785.06
2023-01-30T01:47:22.897Z,101783.31
2023-01-30T01:48:57.157Z,101782.47
2023-01-30T01:50:40.112Z,101773.06
2023-01-30T01:52:15.703Z,101771.38
2023-01-30T01:53:59.137Z,101763.63
2023-01-30T01:55:31.789Z,101760.19
2023-01-30T01:57:07.295Z,101763.66
2023-01-30T01:58:48.201Z,101740.38
2023-01-30T02:00:21.389Z,101767.97
2023-01-30T02:01:56.816Z,101752.47
2023-01-30T02:03:32.622Z,101750.81
2023-01-30T02:05:06.889Z,101741.34
2023-01-30T02:06:40.230Z,101733.56
2023-01-30T02:08:22.369Z,101744.03
2023-01-30T02:09:56.467Z,101732.78
2023-01-30T02:11:51.384Z,101732.88
2023-01-30T02:13:23.627Z,101721.78
2023-01-30T02:14:57.981Z,101727.81
2023-01-30T02:16:30.013Z,101720.03
2023-01-30T02:18:02.566Z,101714.84
2023-01-30T02:19:59.910Z,101709.72
2023-01-30T02:21:43.794Z,101702.78
2023-01-30T02:23:23.285Z,101695.88
2023-01-30T02:25:32.407Z,101680.38
2023-01-30T02:27:32.226Z,101682.16
2023-01-30T02:29:25.782Z,101686.53
2023-01-30T02:31:17.867Z,101689.19
2023-01-30T02:33:07.625Z,101673.63
2023-01-30T02:34:51.108Z,101671.88
2023-01-30T02:36:48.989Z,101672.75
2023-01-30T02:38:34.869Z,101676.28
2023-01-30T02:40:44.420Z,101676.38
2023-01-30T02:42:31.131Z,101671.19
2023-01-30T02:44:17.008Z,101662.56
2023-01-30T02:45:59.544Z,101666.97
2023-01-30T02:47:35.368Z,101671.31
2023-01-30T02:49:10.915Z,101669.59
2023-01-30T02:50:51.864Z,101669.66
2023-01-30T02:52:24.824Z,101665.38
2023-01-30T02:53:56.989Z,101669.72
2023-01-30T02:55:29.709Z,101661.16
2023-01-30T02:57:02.351Z,101665.53
2023-01-30T02:58:44.171Z,101649.09
2023-01-30T03:00:42.823Z,101660.34
2023-01-30T03:02:14.897Z,101644.78
2023-01-30T03:04:32.139Z,101645.72
2023-01-30T03:06:16.678Z,101643.13
2023-01-30T03:08:32.730Z,101644.03
2023-01-30T03:10:09.119Z,101635.34
2023-01-30T03:11:51.920Z,101630.22
2023-01-30T03:13:35.320Z,101618.97
2023-01-30T03:15:16.664Z,101610.34
2023-01-30T03:16:50.118Z,101606.94
2023-01-30T03:18:22.479Z,101615.63
2023-01-30T03:19:55.578Z,101622.56
2023-01-30T03:21:27.624Z,101618.25
2023-01-30T03:22:59.780Z,101633.84
2023-01-30T03:24:31.839Z,101636.44
2023-01-30T03:26:09.045Z,101626.16
2023-01-30T03:27:41.486Z,101611.50
2023-01-30T03:29:22.265Z,101626.16
2023-01-30T03:30:55.393Z,101617.50
2023-01-30T03:32:27.803Z,101612.38
2023-01-30T03:34:01.274Z,101613.19
2023-01-30T03:35:34.068Z,101620.16
2023-01-30T03:37:07.391Z,101631.38
2023-01-30T03:38:41.152Z,101631.44
2023-01-30T03:40:14.556Z,101623.66
2023-01-30T03:41:46.805Z,101616.75
2023-01-30T03:43:21.740Z,101612.41
2023-01-30T03:44:56.847Z,101606.38
2023-01-30T03:46:29.024Z,101608.94
2023-01-30T03:48:01.099Z,101598.56
2023-01-30T03:49:33.156Z,101600.38
2023-01-30T03:51:05.510Z,101597.78
2023-01-30T03:52:37.683Z,101595.19
2023-01-30T03:54:14.013Z,101594.34
2023-01-30T03:55:46.086Z,101589.25
2023-01-30T03:57:18.215Z,101589.28
2023-01-30T03:58:50.458Z,101585.81
2023-01-30T04:00:26.863Z,101587.56
2023-01-30T04:02:01.732Z,101581.50
2023-01-30T04:03:34.367Z,101583.28
2023-01-30T04:05:06.744Z,101584.16
2023-01-30T04:06:38.891Z,101585.03
2023-01-30T04:08:11.665Z,101575.50
2023-01-30T04:09:43.876Z,101576.34
2023-01-30T04:11:16.875Z,101571.16
2023-01-30T04:12:49.201Z,101578.91
2023-01-30T04:14:21.691Z,101583.28
2023-01-30T04:16:21.586Z,101576.34
2023-01-30T04:18:18.389Z,101578.09
2023-01-30T04:19:56.103Z,101578.91
2023-01-30T04:21:28.219Z,101581.56
2023-01-30T04:23:00.888Z,101579.84
2023-01-30T04:24:32.997Z,101575.50
2023-01-30T04:26:06.383Z,101569.47
2023-01-30T04:27:41.612Z,101565.16
2023-01-30T04:29:20.020Z,101572.91
2023-01-30T04:30:55.093Z,101564.28
2023-01-30T04:32:45.151Z,101572.91
2023-01-30T04:34:18.612Z,101568.59
2023-01-30T04:36:00.338Z,101572.91
2023-01-30T04:37:32.815Z,101572.97
2023-01-30T04:39:05.033Z,101569.56
2023-01-30T04:40:37.699Z,101570.38
2023-01-30T04:42:09.882Z,101554.84
2023-01-30T04:43:50.318Z,101572.09
2023-01-30T04:45:32.101Z,101572.97
2023-01-30T04:47:04.160Z,101573.91
2023-01-30T04:48:36.334Z,101564.44
2023-01-30T04:50:09.665Z,101567.91
2023-01-30T04:51:45.035Z,101567.09
2023-01-30T04:53:17.727Z,101574.91
2023-01-30T04:54:49.871Z,101561.09
2023-01-30T04:56:23.175Z,101574.97
2023-01-30T04:57:55.850Z,101579.34
2023-01-30T04:59:30.008Z,101578.53
2023-01-30T05:01:14.445Z,101566.44
2023-01-30T05:02:46.482Z,101559.50
2023-01-30T05:04:18.624Z,101571.69
2023-01-30T05:05:50.836Z,101563.09
2023-01-30T05:07:22.907Z,101587.38
2023-01-30T05:08:56.539Z,101584.00
2023-01-30T05:10:28.724Z,101575.50
2023-01-30T05:12:00.959Z,101574.69
2023-01-30T05:13:33.543Z,101574.72
2023-01-30T05:15:07.050Z,101569.63
2023-01-30T05:16:39.134Z,101566.19
2023-01-30T05:18:13.611Z,101569.75
2023-01-30T05:19:45.782Z,101568.06
2023-01-30T05:21:22.851Z,101576.72
2023-01-30T05:22:54.911Z,101567.22
2023-01-30T05:24:26.967Z,101577.75
2023-01-30T05:25:59.152Z,101577.91
2023-01-30T05:27:31.159Z,101571.03
2023-01-30T05:29:03.388Z,101575.47
2023-01-30T05:30:35.395Z,101580.69
2023-01-30T05:32:18.872Z,101580.78
2023-01-30T05:33:52.641Z,101569.53
2023-01-30T05:35:26.033Z,101568.78
2023-01-30T05:36:58.118Z,101567.09
2023-01-30T05:38:30.329Z,101564.59
2023-01-30T05:40:02.357Z,101566.34
2023-01-30T05:41:37.215Z,101566.38
2023-01-30T05:43:11.333Z,101560.31
2023-01-30T05:44:43.376Z,101569.81
2023-01-30T05:46:18.558Z,101568.97
2023-01-30T05:47:53.585Z,101567.22
2023-01-30T05:49:37.117Z,101571.66
2023-01-30T05:51:29.380Z,101568.22
2023-01-30T05:53:06.506Z,101576.00
2023-01-30T05:54:55.177Z,101575.19
2023-01-30T05:56:27.437Z,101573.47
2023-01-30T05:58:17.056Z,101577.84
2023-01-30T05:59:49.126Z,101570.03
2023-01-30T06:01:22.338Z,101579.56
2023-01-30T06:02:54.717Z,101578.66
2023-01-30T06:04:27.150Z,101583.91
2023-01-30T06:05:59.352Z,101583.94
2023-01-30T06:07:32.255Z,101585.63
2023-01-30T06:09:04.954Z,101584.00
2023-01-30T06:10:39.821Z,101592.59
2023-01-30T06:12:12.080Z,101586.56
2023-01-30T06:13:44.665Z,101594.38
2023-01-30T06:15:17.230Z,101591.88
2023-01-30T06:16:49.698Z,101594.47
2023-01-30T06:18:24.240Z,101591.00
2023-01-30T06:20:02.131Z,101579.75
2023-01-30T06:21:34.741Z,101573.69
2023-01-30T06:23:10.291Z,101589.34
2023-01-30T06:24:42.985Z,101579.03
2023-01-30T06:26:19.074Z,101562.53
2023-01-30T06:27:51.649Z,101573.00
2023-01-30T06:29:28.200Z,101561.75
2023-01-30T06:31:12.036Z,101579.09
2023-01-30T06:32:45.623Z,101577.34
2023-01-30T06:34:17.679Z,101583.44
2023-01-30T06:35:51.223Z,101579.06
2023-01-30T06:37:23.355Z,101577.38
2023-01-30T06:38:58.411Z,101573.91
2023-01-30T06:40:32.442Z,101586.13
2023-01-30T06:42:04.820Z,101574.00
2023-01-30T06:43:36.970Z,101587.00
2023-01-30T06:45:11.487Z,101579.25
2023-01-30T06:46:43.656Z,101580.94
2023-01-30T06:48:15.869Z,101584.44
2023-01-30T06:49:49.698Z,101592.25
2023-01-30T06:51:24.445Z,101596.59
2023-01-30T06:53:03.037Z,101608.72
2023-01-30T06:54:35.305Z,101605.19
2023-01-30T06:56:07.683Z,101594.81
2023-01-30T06:57:39.922Z,101601.72
2023-01-30T06:59:12.024Z,101603.44
2023-01-30T07:00:45.277Z,101619.94
2023-01-30T07:02:17.935Z,101611.34
2023-01-30T07:03:50.054Z,101600.16
2023-01-30T07:05:23.296Z,101619.22
2023-01-30T07:06:55.560Z,101621.84
2023-01-30T07:08:58.778Z,101607.09
2023-01-30T07:10:32.745Z,101600.97
2023-01-30T07:12:08.177Z,101606.94
2023-01-30T07:13:40.358Z,101603.44
2023-01-30T07:15:20.001Z,101608.72
2023-01-30T07:16:53.442Z,101605.19
2023-01-30T07:18:25.751Z,101609.44
2023-01-30T07:19:58.637Z,101606.78
2023-01-30T07:21:30.891Z,101605.97
2023-01-30T07:23:05.461Z,101611.91
2023-01-30T07:24:40.126Z,101619.66
2023-01-30T07:26:22.000Z,101618.75
2023-01-30T07:28:02.328Z,101629.06
2023-01-30T07:29:39.496Z,101626.47
2023-01-30T07:31:11.868Z,101623.84
2023-01-30T07:32:56.090Z,101631.63
2023-01-30T07:34:30.690Z,101625.50
2023-01-30T07:36:07.795Z,101634.16
2023-01-30T07:37:43.013Z,101636.69
2023-01-30T07:39:26.694Z,101621.97
2023-01-30T07:40:59.092Z,101615.84
2023-01-30T07:42:31.498Z,101629.63
2023-01-30T07:44:37.323Z,101640.06
2023-01-30T07:46:09.562Z,101648.69
2023-01-30T07:47:41.940Z,101637.38
2023-01-30T07:49:17.649Z,101648.56
2023-01-30T07:50:53.122Z,101646.03
2023-01-30T07:52:36.841Z,101645.13
2023-01-30T07:54:15.699Z,101625.25
2023-01-30T07:55:50.389Z,101632.19
2023-01-30T07:57:22.856Z,101631.28
2023-01-30T07:58:56.142Z,101631.31
2023-01-30T08:00:36.725Z,101632.13
2023-01-30T08:02:13.468Z,101632.97
2023-01-30T08:03:57.627Z,101634.72
2023-01-30T08:05:32.751Z,101637.31
2023-01-30T08:07:08.178Z,101641.63
2023-01-30T08:08:46.544Z,101642.50
2023-01-30T08:10:29.223Z,101641.59
2023-01-30T08:12:01.366Z,101645.09
2023-01-30T08:13:35.201Z,101645.94
2023-01-30T08:15:08.945Z,101640.81
2023-01-30T08:16:41.084Z,101633.00
2023-01-30T08:18:13.231Z,101639.06
2023-01-30T08:19:46.378Z,101635.63
2023-01-30T10:05:06.088Z,101739.56
2023-01-30T10:31:43.891Z,101746.75
2023-01-30T10:45:28.043Z,101750.81
2023-01-30T10:47:47.503Z,101753.41
2023-01-30T10:52:13.199Z,101762.25
2023-01-30T10:59:46.906Z,101764.06
2023-01-30T11:06:00.155Z,101774.34
2023-01-30T11:07:03.139Z,101772.66
2023-01-30T11:09:07.374Z,101768.25
2023-01-30T11:10:48.429Z,101764.94
2023-01-30T11:13:51.801Z,101769.38
2023-01-30T11:15:38.154Z,101767.59
2023-01-30T11:20:26.880Z,101775.16
2023-01-30T11:24:24.786Z,101775.28
2023-01-30T11:24:59.290Z,101776.09
2023-01-30T11:26:48.178Z,101775.16
2023-01-30T11:28:40.034Z,101787.31
2023-01-30T11:30:30.117Z,101769.09
2023-01-30T11:35:42.477Z,101772.50
2023-01-30T11:37:46.604Z,101776.88
2023-01-30T11:39:20.349Z,101762.19
2023-01-30T11:42:13.098Z,101788.94
2023-01-30T11:43:55.765Z,101777.72
2023-01-30T11:46:07.217Z,101775.13
2023-01-30T11:49:09.097Z,101809.81
2023-01-30T11:50:52.903Z,101802.00
2023-01-30T11:52:37.036Z,101799.41
2023-01-30T11:54:18.570Z,101787.31
2023-01-30T11:56:45.561Z,101788.19
2023-01-30T11:58:30.323Z,101786.47
2023-01-30T12:00:25.540Z,101780.47
2023-01-30T12:03:09.300Z,101783.94
2023-01-30T12:04:50.443Z,101777.97
2023-01-30T12:06:38.045Z,101771.06
2023-01-30T12:09:01.303Z,101778.88
2023-01-30T12:10:54.242Z,101779.00
2023-01-30T12:12:55.067Z,101788.63
2023-01-30T12:14:59.580Z,101775.56
2023-01-30T12:16:50.056Z,101779.13
2023-01-30T12:19:48.609Z,101780.03
2023-01-30T12:21:44.453Z,101779.06
2023-01-30T12:23:30.193Z,101775.56
2023-01-30T12:25:31.506Z,101773.94
2023-01-30T12:27:27.523Z,101770.56
2023-01-30T12:29:25.261Z,101767.25
2023-01-30T12:31:10.860Z,101767.31
2023-01-30T12:32:43.052Z,101770.94
2023-01-30T12:34:38.400Z,101771.88
2023-01-30T12:37:06.321Z,101770.41
2023-01-30T12:38:58.565Z,101775.69
2023-01-30T12:40:44.153Z,101769.75
2023-01-30T12:42:34.931Z,101776.72
2023-01-30T12:44:51.638Z,101766.94
2023-01-30T12:46:43.046Z,101763.56
2023-01-30T12:48:44.291Z,101768.94
2023-01-30T12:50:56.509Z,101787.19
2023-01-30T12:53:35.429Z,101794.91
2023-01-30T12:55:27.657Z,101779.09
2023-01-30T12:57:37.044Z,101786.00
2023-01-30T12:59:48.676Z,101801.69
2023-01-30T13:01:59.905Z,101802.41
2023-01-30T13:04:04.585Z,101809.22
2023-01-30T13:06:10.525Z,101800.47
2023-01-30T13:08:04.175Z,101797.03
2023-01-30T13:09:57.828Z,101792.69
2023-01-30T13:11:45.023Z,101802.28
2023-01-30T13:13:32.805Z,101813.53
2023-01-30T13:15:17.150Z,101800.50
2023-01-30T13:16:54.587Z,101804.00
2023-01-30T13:18:39.851Z,101816.19
2023-01-30T13:20:15.760Z,101826.50
2023-01-30T13:22:23.196Z,101820.38
2023-01-30T13:24:17.570Z,101823.81
2023-01-30T13:26:09.224Z,101835.97
2023-01-30T13:27:48.685Z,101829.75
2023-01-30T13:29:36.981Z,101846.22
2023-01-30T13:31:22.686Z,101831.44
2023-01-30T13:33:09.204Z,101826.19
2023-01-30T13:34:44.990Z,101823.63
2023-01-30T13:36:25.314Z,101839.28
2023-01-30T13:37:57.913Z,101839.28
2023-01-30T13:39:50.760Z,101841.91
2023-01-30T13:41:27.909Z,101842.75
2023-01-30T13:43:16.047Z,101841.97
2023-01-30T13:44:52.159Z,101846.31
2023-01-30T13:46:32.277Z,101847.06
2023-01-30T13:48:22.666Z,101863.75
2023-01-30T13:50:24.324Z,101858.53
2023-01-30T13:52:19.225Z,101861.25
2023-01-30T13:54:00.642Z,101857.84
2023-01-30T13:55:43.324Z,101869.13
2023-01-30T13:57:57.122Z,101870.84
2023-01-30T14:00:11.085Z,101882.16
2023-01-30T14:02:14.968Z,101883.88
2023-01-30T14:07:22.593Z,101890.63
2023-01-30T14:11:42.810Z,101894.81
2023-01-30T14:11:54.541Z,101894.91
2023-01-30T14:17:10.430Z,101903.56
2023-01-30T14:24:34.256Z,101900.97
2023-01-30T14:29:41.781Z,101904.31
2023-01-30T14:35:01.995Z,101926.66
2023-01-30T14:36:58.710Z,101931.03
2023-01-30T14:38:58.216Z,101943.13
2023-01-30T14:40:55.297Z,101947.31
2023-01-30T14:43:15.077Z,101944.53
2023-01-30T14:46:17.684Z,101955.56
2023-01-30T14:51:09.400Z,101962.16
2023-01-30T14:52:55.195Z,101959.41
2023-01-30T14:57:20.097Z,101975.69
2023-01-30T14:59:13.530Z,101969.66
2023-01-30T15:00:45.591Z,101973.88
2023-01-30T15:02:26.588Z,101974.69
2023-01-30T15:03:58.647Z,101978.84
2023-01-30T15:05:44.263Z,101978.75
2023-01-30T15:07:39.080Z,101982.13
2023-01-30T15:09:17.727Z,101990.75
2023-01-30T15:10:58.524Z,101998.53
2023-01-30T15:12:33.199Z,101996.81
2023-01-30T15:14:12.720Z,101994.31
2023-01-30T15:15:53.342Z,102013.47
2023-01-30T15:18:07.238Z,102007.59
2023-01-30T15:20:16.481Z,102015.31
2023-01-30T15:21:57.567Z,102030.91
2023-01-30T15:24:31.580Z,102033.69
2023-01-30T15:26:52.422Z,102036.28
2023-01-30T15:28:52.919Z,102024.13
2023-01-30T15:31:02.761Z,102028.53
2023-01-30T15:32:38.564Z,102025.97
2023-01-30T15:34:22.761Z,102022.47
2023-01-30T15:35:54.751Z,102030.31
2023-01-30T15:37:30.620Z,102036.28
2023-01-30T15:39:07.346Z,102035.44
2023-01-30T15:40:40.887Z,102038.91
2023-01-30T15:42:15.184Z,102037.19
2023-01-30T15:44:15.762Z,102050.28
2023-01-30T15:46:26.752Z,102042.50
2023-01-30T15:48:07.939Z,102047.72
2023-01-30T15:49:52.181Z,102059.81
2023-01-30T15:51:27.557Z,102061.47
2023-01-30T15:53:02.111Z,102060.50
2023-01-30T15:54:34.633Z,102062.28
2023-01-30T15:56:11.678Z,102074.53
2023-01-30T15:57:48.237Z,102063.19
2023-01-30T15:59:48.735Z,102077.97
2023-01-30T16:01:24.830Z,102063.13
2023-01-30T16:03:03.113Z,102068.31
2023-01-30T16:04:35.199Z,102074.44
2023-01-30T16:06:07.913Z,102072.63
2023-01-30T16:07:39.948Z,102079.63
2023-01-30T16:09:25.569Z,102080.38
2023-01-30T16:10:58.260Z,102076.88
2023-01-30T16:12:31.180Z,102092.41
2023-01-30T16:14:02.920Z,102085.53
2023-01-30T16:15:50.850Z,102090.66
2023-01-30T16:17:22.902Z,102091.31
2023-01-30T16:19:22.498Z,102096.50
2023-01-30T16:21:02.050Z,102104.31
2023-01-30T16:22:35.236Z,102097.47
2023-01-30T16:24:14.485Z,102108.72
2023-01-30T16:25:47.610Z,102104.34
2023-01-30T16:27:33.135Z,102112.06
2023-01-30T16:29:07.284Z,102115.50
2023-01-30T16:30:42.857Z,102110.31
2023-01-30T16:32:15.129Z,102118.97
2023-01-30T16:33:53.120Z,102117.25
2023-01-30T16:35:27.270Z,102115.50
2023-01-30T16:37:08.660Z,102112.06
2023-01-30T16:38:48.144Z,102122.56
2023-01-30T16:40:43.919Z,102129.47
2023-01-30T16:42:27.958Z,102132.94
2023-01-30T16:44:20.782Z,102139.06
2023-01-30T16:45:52.964Z,102143.38
2023-01-30T16:47:26.305Z,102145.09
2023-01-30T16:49:03.157Z,102151.09
2023-01-30T16:50:35.122Z,102154.56
2023-01-30T16:52:26.737Z,102149.38
2023-01-30T16:54:02.946Z,102160.53
2023-01-30T16:55:40.221Z,102151.78
2023-01-30T16:57:40.652Z,102151.78
2023-01-30T16:59:20.049Z,102169.97
2023-01-30T17:00:52.072Z,102159.50
2023-01-30T17:02:38.283Z,102165.53
2023-01-30T17:04:19.033Z,102164.69
2023-01-30T17:05:51.362Z,102167.25
2023-01-30T17:07:38.173Z,102173.28
2023-01-30T17:09:46.105Z,102173.19
2023-01-30T17:11:44.345Z,102171.47
2023-01-30T17:13:31.211Z,102173.09
2023-01-30T17:15:14.721Z,102169.56
2023-01-30T17:17:07.767Z,102168.59
2023-01-30T17:18:39.692Z,102181.53
2023-01-30T17:20:13.336Z,102181.41
2023-01-30T17:21:53.171Z,102183.06
2023-01-30T17:23:33.482Z,102185.50
2023-01-30T17:25:11.711Z,102184.63
2023-01-30T17:26:44.188Z,102190.66
2023-01-30T17:28:21.400Z,102188.84
2023-01-30T17:29:53.425Z,102187.91
2023-01-30T17:31:25.464Z,102186.88
2023-01-30T17:32:57.561Z,102184.13
2023-01-30T17:34:29.700Z,102197.84
2023-01-30T17:36:06.950Z,102202.94
2023-01-30T17:37:39.007Z,102208.09
2023-01-30T17:39:17.612Z,102212.31
2023-01-30T17:40:51.000Z,102213.09
2023-01-30T17:42:23.084Z,102215.69
2023-01-30T17:43:55.021Z,102218.16
2023-01-30T17:45:27.161Z,102224.19
2023-01-30T17:46:59.169Z,102225.91
2023-01-30T17:48:31.152Z,102231.88
2023-01-30T17:50:04.276Z,102237.06
2023-01-30T17:51:36.178Z,102234.47
2023-01-30T17:53:08.033Z,102243.31
2023-01-30T17:54:40.050Z,102244.22
2023-01-30T17:56:21.363Z,102252.03
2023-01-30T17:57:54.399Z,102253.78
2023-01-30T17:59:26.511Z,102259.88
2023-01-30T18:00:58.438Z,102258.25
2023-01-30T18:02:32.364Z,102263.50
2023-01-30T18:04:04.531Z,102260.06
2023-01-30T18:05:36.648Z,102264.22
2023-01-30T18:07:13.632Z,102271.13
2023-01-30T18:08:45.806Z,102261.53
2023-01-30T18:10:20.187Z,102262.38
2023-01-30T18:11:52.288Z,102266.72
2023-01-30T18:13:24.211Z,102268.31
2023-01-30T18:14:56.100Z,102269.06
2023-01-30T18:16:33.077Z,102273.31
2023-01-30T18:18:05.078Z,102273.94
2023-01-30T18:19:36.979Z,102279.97
2023-01-30T18:21:08.958Z,102285.16
2023-01-30T18:22:40.935Z,102288.59
2023-01-30T18:24:13.754Z,102287.69
2023-01-30T18:25:45.729Z,102291.94
2023-01-30T18:27:17.918Z,102291.00
2023-01-30T18:28:49.969Z,102297.91
2023-01-30T18:30:24.663Z,102297.03
2023-01-30T18:31:57.650Z,102296.88
2023-01-30T18:33:29.513Z,102305.53
2023-01-30T18:35:01.465Z,102304.59
2023-01-30T18:36:34.848Z,102307.09
2023-01-30T18:38:06.775Z,102305.25
2023-01-30T18:39:38.773Z,102312.97
2023-01-30T18:41:22.678Z,102308.63
2023-01-30T18:42:54.672Z,102314.63
2023-01-30T18:44:26.607Z,102304.16
2023-01-30T18:46:04.116Z,102313.75
2023-01-30T18:47:36.065Z,102303.25
2023-01-30T18:49:08.528Z,102307.56
2023-01-30T18:50:40.489Z,102303.25
2023-01-30T18:52:12.443Z,102304.09
2023-01-30T18:53:44.585Z,102307.56
2023-01-30T18:55:16.957Z,102309.22
2023-01-30T18:56:48.818Z,102311.81
2023-01-30T18:58:20.795Z,102308.41
2023-01-30T18:59:52.780Z,102316.06
2023-01-30T19:01:26.948Z,102309.13
2023-01-30T19:02:59.732Z,102320.16
2023-01-30T19:04:31.670Z,102318.50
2023-01-30T19:06:03.927Z,102324.69
2023-01-30T19:07:36.393Z,102322.13
2023-01-30T19:09:08.960Z,102317.91
2023-01-30T19:10:44.929Z,102324.75
2023-01-30T19:12:35.268Z,102314.16
2023-01-30T19:14:08.067Z,102313.97
2023-01-30T19:15:40.030Z,102316.50
2023-01-30T19:17:14.381Z,102325.91
2023-01-30T19:18:46.531Z,102330.13
2023-01-30T19:20:20.737Z,102335.28
2023-01-30T19:21:54.099Z,102328.31
2023-01-30T19:23:27.879Z,102338.59
2023-01-30T19:24:59.858Z,102331.66
2023-01-30T19:26:31.834Z,102333.28
2023-01-30T19:28:04.951Z,102330.69
2023-01-30T19:29:36.957Z,102331.53
2023-01-30T19:31:10.081Z,102330.53
2023-01-30T19:32:42.191Z,102330.41
2023-01-30T19:34:14.232Z,102336.53
2023-01-30T19:35:46.753Z,102328.56
2023-01-30T19:37:18.706Z,102347.50
2023-01-30T19:38:52.280Z,102344.06
2023-01-30T19:40:26.805Z,102342.25
2023-01-30T19:41:58.742Z,102339.66
2023-01-30T19:43:30.828Z,102344.66
2023-01-30T19:45:02.853Z,102341.13
2023-01-30T19:46:35.745Z,102348.84
2023-01-30T19:48:09.488Z,102354.78
2023-01-30T19:49:42.439Z,102355.56
2023-01-30T19:51:37.028Z,102360.78
2023-01-30T19:53:08.951Z,102365.03
2023-01-30T19:54:44.360Z,102354.47
2023-01-30T19:56:17.079Z,102361.44
2023-01-30T19:57:49.173Z,102357.06
2023-01-30T20:00:02.425Z,102357.13
2023-01-30T20:01:40.103Z,102354.47
2023-01-30T20:03:16.559Z,102358.78
2023-01-30T20:04:48.684Z,102360.56
2023-01-30T20:06:24.987Z,102365.75
2023-01-30T20:08:00.150Z,102361.44
2023-01-30T20:09:32.900Z,102368.44
2023-01-30T20:11:17.975Z,102365.75
2023-01-30T20:12:59.031Z,102370.78
2023-01-30T20:14:32.370Z,102377.63
2023-01-30T20:16:10.341Z,102387.13
2023-01-30T20:17:42.563Z,102387.16
2023-01-30T20:19:33.784Z,102391.47
2023-01-30T20:21:15.536Z,102393.19
2023-01-30T20:22:53.366Z,102401.78
2023-01-30T20:24:35.896Z,102401.72
2023-01-30T20:26:17.358Z,102399.94
2023-01-30T20:27:59.967Z,102396.41
2023-01-30T20:29:34.291Z,102396.34
2023-01-30T20:31:21.756Z,102403.16
2023-01-30T20:32:57.590Z,102413.38
2023-01-30T20:34:30.007Z,102400.34
2023-01-30T20:36:06.958Z,102410.72
2023-01-30T20:37:39.114Z,102415.03
2023-01-30T20:39:11.812Z,102418.44
2023-01-30T20:40:47.907Z,102419.19
2023-01-30T20:42:20.154Z,102418.31
2023-01-30T20:43:56.675Z,102420.06
2023-01-30T20:45:28.704Z,102420.00
2023-01-30T20:47:00.857Z,102414.69
2023-01-30T20:48:37.294Z,102405.22
2023-01-30T20:50:11.693Z,102410.28
2023-01-30T20:51:47.628Z,102402.38
2023-01-30T20:53:21.782Z,102407.41
2023-01-30T20:54:57.376Z,102405.66
2023-01-30T20:56:37.607Z,102413.44
2023-01-30T20:58:14.651Z,102419.34
2023-01-30T20:59:47.053Z,102414.94
2023-01-30T21:01:21.710Z,102423.53
2023-01-30T21:02:53.838Z,102424.34
2023-01-30T21:04:25.997Z,102423.47
2023-01-30T21:06:01.573Z,102431.22
2023-01-30T21:07:33.650Z,102427.75
2023-01-30T21:09:06.897Z,102422.50
2023-01-30T21:10:46.683Z,102418.09
2023-01-30T21:12:20.173Z,102431.84
2023-01-30T21:13:52.263Z,102417.06
2023-01-30T21:15:24.426Z,102416.31
2023-01-30T21:16:56.518Z,102413.78
2023-01-30T21:18:34.696Z,102414.66
2023-01-30T21:20:07.180Z,102412.97
2023-01-30T21:21:42.035Z,102419.84
2023-01-30T21:23:15.141Z,102423.41
2023-01-30T21:24:47.220Z,102425.09
2023-01-30T21:26:20.463Z,102419.91
2023-01-30T21:27:52.539Z,102425.84
2023-01-30T21:29:26.387Z,102420.59
2023-01-30T21:31:09.564Z,102428.31
2023-01-30T21:32:41.862Z,102430.78
2023-01-30T21:34:14.125Z,102426.34
2023-01-30T21:35:46.324Z,102428.03
2023-01-30T21:37:37.918Z,102424.56
2023-01-30T21:39:32.092Z,102427.16
2023-01-30T21:41:22.763Z,102426.13
2023-01-30T21:43:13.460Z,102427.66
2023-01-30T21:44:45.552Z,102437.00
2023-01-30T21:46:17.711Z,102436.06
2023-01-30T21:47:52.765Z,102446.41
2023-01-30T21:49:25.605Z,102437.69
2023-01-30T21:50:57.986Z,102443.69
2023-01-30T21:52:32.799Z,102447.97
2023-01-30T21:54:04.939Z,102444.44
2023-01-30T21:55:37.071Z,102445.31
2023-01-30T21:57:09.170Z,102450.50
2023-01-30T21:58:41.325Z,102448.72
2023-01-30T22:00:13.843Z,102456.50
2023-01-30T22:01:46.153Z,102459.09
2023-01-30T22:03:18.262Z,102463.31
2023-01-30T22:04:50.450Z,102458.94
2023-01-30T22:06:22.644Z,102460.72
2023-01-30T22:07:54.653Z,102455.47